createdAt,value
2022-11-16T00:01:43.354Z,68.67
2022-11-16T00:04:12.932Z,77.80
2022-11-16T00:06:41.044Z,77.33
2022-11-16T00:09:25.588Z,62.63
2022-11-16T00:11:55.963Z,79.07
2022-11-16T00:14:27.764Z,62.20
2022-11-16T00:16:55.937Z,58.20
2022-11-16T00:19:24.147Z,96.80
2022-11-16T00:21:52.254Z,57.73
2022-11-16T00:24:21.255Z,67.77
2022-11-16T00:26:49.932Z,79.23
2022-11-16T00:29:19.965Z,74.57
2022-11-16T00:31:49.944Z,60.50
2022-11-16T00:34:18.736Z,84.30
2022-11-16T00:36:46.900Z,57.10
2022-11-16T00:39:16.156Z,58.10
2022-11-16T00:41:44.745Z,70.83
2022-11-16T00:44:13.110Z,75.50
2022-11-16T00:46:41.154Z,78.13
2022-11-16T00:49:10.783Z,77.40
2022-11-16T00:51:38.957Z,51.40
2022-11-16T00:54:09.989Z,79.07
2022-11-16T00:56:38.857Z,63.23
2022-11-16T00:59:07.710Z,72.97
2022-11-16T01:01:35.660Z,61.17
2022-11-16T01:04:03.589Z,62.70
2022-11-16T01:06:32.832Z,68.47
2022-11-16T01:09:02.057Z,61.13
2022-11-16T01:11:47.365Z,64.90
2022-11-16T01:14:15.280Z,56.63
2022-11-16T01:16:44.667Z,89.03
2022-11-16T01:19:12.592Z,61.53
2022-11-16T01:21:41.832Z,66.13
2022-11-16T01:24:09.754Z,99.60
2022-11-16T01:26:37.639Z,62.10
2022-11-16T01:29:05.865Z,61.10
2022-11-16T01:31:38.146Z,67.90
2022-11-16T01:34:06.520Z,53.77
2022-11-16T01:36:36.604Z,65.43
2022-11-16T01:39:06.234Z,65.03
2022-11-16T01:41:45.585Z,62.30
2022-11-16T01:44:52.194Z,62.00
2022-11-16T01:47:20.319Z,62.53
2022-11-16T01:49:50.982Z,64.83
2022-11-16T01:52:30.730Z,59.57
2022-11-16T01:55:00.401Z,66.50
2022-11-16T01:57:36.627Z,62.53
2022-11-16T02:00:10.470Z,82.30
2022-11-16T02:02:54.738Z,51.63
2022-11-16T02:05:56.552Z,83.03
2022-11-16T02:08:53.306Z,68.83
2022-11-16T02:11:58.623Z,74.83
2022-11-16T02:14:39.220Z,64.40
2022-11-16T02:17:12.038Z,78.83
2022-11-16T02:20:00.103Z,61.73
2022-11-16T02:22:41.863Z,82.07
2022-11-16T02:25:14.911Z,78.03
2022-11-16T02:28:15.304Z,69.23
2022-11-16T02:30:46.335Z,60.97
2022-11-16T02:33:18.207Z,88.70
2022-11-16T02:35:48.493Z,77.10
2022-11-16T02:38:18.691Z,85.47
2022-11-16T02:40:49.497Z,71.00
2022-11-16T02:43:26.725Z,86.17
2022-11-16T02:45:59.791Z,67.80
2022-11-16T02:48:32.692Z,68.40
2022-11-16T02:51:01.797Z,61.33
2022-11-16T02:53:34.007Z,81.10
2022-11-16T02:56:02.112Z,92.03
2022-11-16T02:58:30.590Z,73.47
2022-11-16T03:01:03.239Z,66.90
2022-11-16T03:03:36.411Z,60.90
2022-11-16T03:06:08.664Z,62.63
2022-11-16T03:08:40.033Z,63.87
2022-11-16T03:11:29.785Z,103.03
2022-11-16T03:14:03.161Z,56.83
2022-11-16T03:16:36.581Z,63.27
2022-11-16T03:19:06.695Z,74.00
2022-11-16T03:21:39.289Z,63.90
2022-11-16T03:24:08.195Z,56.27
2022-11-16T03:26:52.022Z,54.50
2022-11-16T03:29:25.585Z,78.87
2022-11-16T03:31:59.896Z,71.13
2022-11-16T03:34:30.738Z,74.20
2022-11-16T03:37:00.361Z,67.53
2022-11-16T03:39:32.491Z,73.03
2022-11-16T03:42:02.109Z,113.57
2022-11-16T03:44:30.459Z,60.60
2022-11-16T03:46:59.723Z,88.20
2022-11-16T03:49:31.021Z,68.97
2022-11-16T03:51:59.489Z,72.50
2022-11-16T03:54:27.430Z,72.60
2022-11-16T03:56:55.311Z,81.10
2022-11-16T03:59:24.081Z,78.63
2022-11-16T04:01:52.568Z,83.80
2022-11-16T04:04:39.572Z,77.87
2022-11-16T04:07:26.663Z,94.87
2022-11-16T04:10:12.445Z,79.03
2022-11-16T04:13:02.292Z,83.50
2022-11-16T04:15:47.474Z,90.73
2022-11-16T04:18:33.173Z,87.17
2022-11-16T04:21:20.543Z,73.80
2022-11-16T04:24:06.326Z,101.03
2022-11-16T04:26:52.134Z,75.37
2022-11-16T04:29:20.365Z,83.73
2022-11-16T04:32:05.771Z,82.77
2022-11-16T04:34:51.217Z,95.60
2022-11-16T04:37:37.956Z,90.57
2022-11-16T04:40:08.484Z,89.90
2022-11-16T04:42:36.741Z,116.73
2022-11-16T04:45:23.611Z,87.87
2022-11-16T04:47:54.188Z,108.00
2022-11-16T04:50:26.719Z,120.63
2022-11-16T04:52:56.475Z,118.03
2022-11-16T04:55:24.418Z,103.63
2022-11-16T04:57:52.460Z,94.97
2022-11-16T05:00:22.698Z,117.60
2022-11-16T05:02:51.213Z,116.77
2022-11-16T05:05:19.382Z,85.17
2022-11-16T05:07:49.193Z,115.77
2022-11-16T05:10:24.752Z,117.27
2022-11-16T05:12:54.036Z,103.30
2022-11-16T05:15:23.297Z,111.40
2022-11-16T05:17:54.778Z,108.40
2022-11-16T05:20:42.769Z,121.40
2022-11-16T05:23:30.894Z,115.30
2022-11-16T05:26:05.154Z,103.20
2022-11-16T05:28:34.092Z,104.17
2022-11-16T05:31:03.152Z,117.63
2022-11-16T05:33:32.705Z,114.70
2022-11-16T05:36:00.688Z,95.10
2022-11-16T05:38:28.643Z,102.50
2022-11-16T05:40:59.477Z,111.60
2022-11-16T05:43:30.286Z,115.93
2022-11-16T05:46:24.683Z,109.70
2022-11-16T05:48:52.916Z,100.57
2022-11-16T05:51:21.472Z,88.20
2022-11-16T05:53:49.616Z,104.73
2022-11-16T05:56:22.156Z,111.00
2022-11-16T05:58:52.342Z,113.80
2022-11-16T06:01:21.287Z,118.90
2022-11-16T06:03:50.641Z,110.67
2022-11-16T06:06:19.937Z,108.47
2022-11-16T06:08:48.934Z,151.20
2022-11-16T06:11:22.300Z,116.87
2022-11-16T06:13:50.260Z,106.37
2022-11-16T06:16:19.885Z,99.00
2022-11-16T06:18:48.783Z,123.20
2022-11-16T06:21:19.467Z,120.43
2022-11-16T06:23:49.209Z,152.17
2022-11-16T06:26:18.756Z,116.23
2022-11-16T06:28:47.598Z,136.00
2022-11-16T06:31:15.582Z,119.47
2022-11-16T06:33:44.907Z,97.73
2022-11-16T06:36:19.696Z,115.10
2022-11-16T06:38:49.591Z,115.40
2022-11-16T06:41:18.155Z,124.57
2022-11-16T06:43:49.690Z,128.70
2022-11-16T06:46:20.653Z,141.20
2022-11-16T06:48:50.405Z,119.90
2022-11-16T06:51:19.340Z,117.83
2022-11-16T06:53:48.327Z,132.43
2022-11-16T06:56:17.073Z,119.77
2022-11-16T06:58:53.231Z,124.43
2022-11-16T07:01:22.137Z,134.83
2022-11-16T07:03:53.029Z,130.40
2022-11-16T07:06:20.982Z,103.13
2022-11-16T07:08:49.099Z,123.90
2022-11-16T07:11:21.269Z,138.13
2022-11-16T07:13:49.423Z,131.93
2022-11-16T07:16:17.931Z,124.50
2022-11-16T07:18:56.379Z,127.73
2022-11-16T07:21:24.844Z,134.77
2022-11-16T07:23:55.911Z,112.33
2022-11-16T07:26:24.234Z,148.07
2022-11-16T07:28:59.225Z,145.67
2022-11-16T07:31:27.809Z,127.37
2022-11-16T07:34:32.676Z,146.30
2022-11-16T07:37:09.871Z,131.47
2022-11-16T07:39:38.329Z,180.23
2022-11-16T07:42:11.787Z,149.73
2022-11-16T07:44:51.037Z,146.30
2022-11-16T07:47:19.938Z,130.83
2022-11-16T07:49:49.485Z,136.40
2022-11-16T07:52:20.562Z,155.57
2022-11-16T07:54:58.081Z,135.63
2022-11-16T07:57:28.216Z,144.57
2022-11-16T07:59:59.199Z,163.37
2022-11-16T08:02:28.849Z,139.30
2022-11-16T08:04:58.189Z,174.67
2022-11-16T08:07:28.951Z,147.93
2022-11-16T08:09:57.882Z,156.33
2022-11-16T08:12:26.399Z,156.07
2022-11-16T08:14:55.735Z,120.57
2022-11-16T08:17:25.014Z,155.67
2022-11-16T08:19:54.574Z,144.53
2022-11-16T08:22:24.628Z,160.60
2022-11-16T08:24:53.581Z,149.33
2022-11-16T08:27:21.773Z,138.27
2022-11-16T08:29:53.461Z,151.33
2022-11-16T08:32:22.361Z,141.40
2022-11-16T08:34:50.375Z,141.50
2022-11-16T08:37:18.615Z,138.30
2022-11-16T08:39:48.462Z,163.47
2022-11-16T08:42:16.341Z,143.13
2022-11-16T08:44:48.120Z,143.00
2022-11-16T08:47:18.906Z,143.43
2022-11-16T08:49:55.149Z,165.27
2022-11-16T08:52:26.080Z,142.23
2022-11-16T08:55:31.183Z,115.27
2022-11-16T08:57:59.186Z,124.33
2022-11-16T09:04:39.951Z,121.13
2022-11-16T09:07:07.909Z,123.27
2022-11-16T09:09:35.842Z,115.67
2022-11-16T09:12:05.520Z,105.67
2022-11-16T09:14:33.401Z,110.33
2022-11-16T09:17:01.302Z,115.90
2022-11-16T09:19:29.203Z,132.37
2022-11-16T09:21:57.106Z,104.67
2022-11-16T09:24:24.985Z,93.60
2022-11-16T09:26:52.846Z,108.57
2022-11-16T09:29:22.091Z,92.97
2022-11-16T09:31:49.955Z,106.97
2022-11-16T09:34:17.778Z,99.30
2022-11-16T09:36:45.676Z,87.70
2022-11-16T09:39:30.142Z,83.97
2022-11-16T09:42:06.613Z,91.47
2022-11-16T09:44:50.174Z,73.87
2022-11-16T09:47:21.646Z,81.90
2022-11-16T09:49:55.698Z,73.67
2022-11-16T09:52:29.965Z,61.73
2022-11-16T09:54:59.295Z,75.53
2022-11-16T09:57:30.216Z,60.27
2022-11-16T10:00:03.511Z,68.00
2022-11-16T10:02:44.028Z,57.60
2022-11-16T10:05:17.884Z,54.50
2022-11-16T10:07:48.380Z,47.43
2022-11-16T10:10:17.455Z,45.40
2022-11-16T10:12:47.400Z,35.53
2022-11-16T10:15:28.294Z,31.90
2022-11-16T10:18:14.078Z,35.93
2022-11-16T10:20:50.439Z,39.33
2022-11-16T10:23:26.351Z,37.00
2022-11-16T10:25:56.324Z,35.07
2022-11-16T10:28:45.044Z,28.97
2022-11-16T10:31:19.868Z,35.50
2022-11-16T10:33:49.888Z,42.60
2022-11-16T10:36:18.036Z,37.63
2022-11-16T10:38:46.589Z,29.90
2022-11-16T10:41:19.434Z,38.97
2022-11-16T10:43:47.419Z,40.10
2022-11-16T10:46:22.070Z,30.73
2022-11-16T10:48:56.795Z,37.97
2022-11-16T10:51:24.703Z,26.60
2022-11-16T10:53:55.703Z,37.50
2022-11-16T10:56:26.096Z,34.80
2022-11-16T10:58:56.583Z,40.20
2022-11-16T11:01:37.576Z,36.37
2022-11-16T11:04:17.343Z,47.20
2022-11-16T11:06:46.281Z,32.00
2022-11-16T11:09:23.897Z,37.73
2022-11-16T11:12:20.576Z,41.97
2022-11-16T11:15:04.010Z,45.20
2022-11-16T11:17:35.664Z,35.63
2022-11-16T11:20:05.653Z,41.20
2022-11-16T11:22:34.499Z,35.83
2022-11-16T11:25:03.468Z,38.47
2022-11-16T11:27:34.904Z,42.53
2022-11-16T11:30:03.839Z,32.50
2022-11-16T11:32:36.198Z,35.97
2022-11-16T11:35:06.435Z,35.17
2022-11-16T11:37:35.957Z,36.67
2022-11-16T11:40:22.533Z,39.60
2022-11-16T11:42:57.120Z,36.80
2022-11-16T11:45:29.283Z,31.57
2022-11-16T11:48:02.491Z,32.13
2022-11-16T11:50:51.639Z,40.77
2022-11-16T11:53:38.558Z,36.80
2022-11-16T11:56:07.143Z,33.50
2022-11-16T11:58:36.646Z,36.83
2022-11-16T12:01:25.717Z,38.63
2022-11-16T12:04:18.877Z,32.27
2022-11-16T12:06:52.315Z,30.10
2022-11-16T12:09:30.266Z,27.90
2022-11-16T12:12:11.806Z,43.23
2022-11-16T12:15:00.050Z,29.60
2022-11-16T12:17:34.418Z,30.80
2022-11-16T12:20:16.426Z,44.07
2022-11-16T12:22:59.739Z,39.87
2022-11-16T12:25:38.495Z,28.80
2022-11-16T12:28:16.021Z,32.53
2022-11-16T12:30:56.576Z,33.33
2022-11-16T12:33:34.320Z,33.37
2022-11-16T12:36:09.769Z,33.17
2022-11-16T12:38:46.511Z,42.33
2022-11-16T12:41:47.660Z,34.33
2022-11-16T12:44:20.822Z,29.27
2022-11-16T12:46:55.004Z,35.87
2022-11-16T12:49:48.762Z,33.93
2022-11-16T12:52:34.065Z,33.03
2022-11-16T12:55:26.765Z,36.63
2022-11-16T12:58:11.620Z,35.90
2022-11-16T13:00:51.617Z,28.97
2022-11-16T13:03:22.016Z,40.07
2022-11-16T13:05:59.122Z,27.07
2022-11-16T13:08:39.494Z,32.70
2022-11-16T13:11:13.001Z,34.10
2022-11-16T13:13:41.819Z,34.30
2022-11-16T13:16:10.789Z,41.63
2022-11-16T13:18:41.392Z,39.77
2022-11-16T13:21:15.815Z,32.90
2022-11-16T13:23:53.649Z,27.80
2022-11-16T13:26:24.320Z,33.53
2022-11-16T13:28:57.839Z,35.80
2022-11-16T13:31:29.896Z,36.97
2022-11-16T13:34:00.250Z,34.97
2022-11-16T13:36:46.237Z,28.90
2022-11-16T13:39:21.952Z,34.30
2022-11-16T13:41:51.157Z,36.97
2022-11-16T13:44:28.384Z,26.43
2022-11-16T13:46:59.684Z,33.63
2022-11-16T13:49:31.763Z,31.70
2022-11-16T13:52:17.292Z,35.07
2022-11-16T13:54:53.517Z,25.43
2022-11-16T13:57:24.997Z,29.00
2022-11-16T13:59:58.203Z,32.07
2022-11-16T14:02:31.952Z,27.57
2022-11-16T14:05:00.807Z,31.67
2022-11-16T14:07:37.262Z,25.47
2022-11-16T14:10:09.565Z,28.30
2022-11-16T14:12:58.512Z,35.13
2022-11-16T14:15:32.127Z,27.90
2022-11-16T14:18:23.110Z,32.00
2022-11-16T14:20:57.007Z,32.10
2022-11-16T14:23:31.887Z,22.50
2022-11-16T14:26:10.911Z,27.33
2022-11-16T14:29:11.622Z,24.77
2022-11-16T14:31:51.498Z,27.43
2022-11-16T14:34:22.074Z,22.00
2022-11-16T14:36:50.730Z,25.00
2022-11-16T14:39:26.457Z,36.03
2022-11-16T14:41:56.376Z,24.30
2022-11-16T14:44:27.800Z,26.83
2022-11-16T14:46:55.802Z,34.60
2022-11-16T14:49:25.927Z,25.50
2022-11-16T14:51:56.291Z,25.87
2022-11-16T14:54:30.112Z,22.80
2022-11-16T14:57:01.125Z,25.07
2022-11-16T14:59:29.617Z,29.47
2022-11-16T15:01:57.700Z,24.80
2022-11-16T15:04:26.674Z,25.03
2022-11-16T15:06:57.762Z,19.80
2022-11-16T15:09:28.838Z,27.03
2022-11-16T15:12:16.294Z,22.37
2022-11-16T15:14:48.748Z,30.20
2022-11-16T15:17:18.989Z,25.70
2022-11-16T15:19:55.344Z,22.67
2022-11-16T15:22:23.825Z,31.67
2022-11-16T15:24:55.482Z,28.90
2022-11-16T15:27:32.632Z,24.67
2022-11-16T15:30:01.734Z,27.27
2022-11-16T15:32:31.375Z,32.50
2022-11-16T15:35:05.014Z,28.00
2022-11-16T15:37:33.485Z,52.10
2022-11-16T15:40:03.504Z,31.73
2022-11-16T15:42:32.833Z,26.07
2022-11-16T15:45:01.222Z,29.47
2022-11-16T15:47:29.279Z,31.03
2022-11-16T15:49:57.180Z,23.90
2022-11-16T15:52:44.695Z,24.57
2022-11-16T15:55:40.017Z,33.43
2022-11-16T15:58:15.135Z,26.20
2022-11-16T16:00:43.326Z,24.17
2022-11-16T16:03:20.462Z,28.40
2022-11-16T16:05:48.782Z,30.50
2022-11-16T16:08:31.294Z,29.30
2022-11-16T16:11:04.970Z,22.07
2022-11-16T16:13:35.959Z,21.20
2022-11-16T16:16:23.062Z,28.00
2022-11-16T16:18:51.131Z,27.20
2022-11-16T16:21:19.189Z,31.47
2022-11-16T16:23:48.386Z,15.30
2022-11-16T16:26:16.524Z,34.80
2022-11-16T16:28:46.067Z,25.40
2022-11-16T16:31:14.374Z,22.53
2022-11-16T16:33:42.501Z,25.87
2022-11-16T16:36:11.670Z,22.20
2022-11-16T16:38:39.808Z,22.17
2022-11-16T16:41:08.062Z,26.50
2022-11-16T16:43:36.301Z,21.60
2022-11-16T16:46:06.293Z,18.33
2022-11-16T16:48:34.763Z,20.60
2022-11-16T16:51:02.977Z,26.50
2022-11-16T16:53:30.929Z,19.20
2022-11-16T16:55:58.852Z,15.87
2022-11-16T16:58:26.713Z,24.33
2022-11-16T17:01:00.885Z,18.37
2022-11-16T17:03:31.720Z,20.30
2022-11-16T17:06:01.774Z,26.37
2022-11-16T17:08:34.275Z,23.10
2022-11-16T17:11:02.351Z,18.47
2022-11-16T17:13:30.181Z,28.47
2022-11-16T17:15:58.211Z,21.70
2022-11-16T17:18:26.076Z,24.40
2022-11-16T17:20:55.270Z,18.70
2022-11-16T17:23:23.197Z,17.07
2022-11-16T17:25:51.159Z,18.43
2022-11-16T17:28:18.970Z,14.97
2022-11-16T17:30:46.840Z,13.20
2022-11-16T17:33:14.781Z,13.80
2022-11-16T17:35:42.895Z,13.80
2022-11-16T17:38:13.070Z,15.70
2022-11-16T17:40:41.334Z,21.73
2022-11-16T17:43:09.260Z,18.63
2022-11-16T17:45:37.226Z,15.67
2022-11-16T17:48:06.587Z,23.97
2022-11-16T17:50:34.529Z,18.77
2022-11-16T17:53:02.457Z,18.40
2022-11-16T17:55:31.772Z,20.53
2022-11-16T17:57:59.683Z,13.70
2022-11-16T18:00:27.574Z,12.03
2022-11-16T18:02:55.464Z,15.83
2022-11-16T18:05:23.330Z,18.50
2022-11-16T18:07:51.207Z,17.23
2022-11-16T18:10:19.586Z,20.17
2022-11-16T18:12:48.911Z,15.20
2022-11-16T18:15:33.169Z,16.57
2022-11-16T18:18:02.798Z,13.77
2022-11-16T18:20:31.108Z,15.77
2022-11-16T18:22:58.992Z,15.73
2022-11-16T18:25:26.910Z,15.73
2022-11-16T18:27:56.507Z,15.63
2022-11-16T18:30:25.231Z,12.13
2022-11-16T18:32:53.160Z,12.47
2022-11-16T18:35:21.041Z,11.70
2022-11-16T18:37:48.951Z,12.67
2022-11-16T18:40:18.021Z,10.13
2022-11-16T18:42:45.905Z,20.77
2022-11-16T18:45:15.320Z,12.83
2022-11-16T18:47:43.232Z,12.50
2022-11-16T18:50:18.986Z,15.53
2022-11-16T18:52:49.301Z,13.87
2022-11-16T18:55:17.192Z,14.50
2022-11-16T18:57:45.084Z,15.13
2022-11-16T19:00:16.204Z,10.23
2022-11-16T19:02:44.149Z,12.83
2022-11-16T19:05:12.029Z,16.63
2022-11-16T19:07:39.967Z,14.33
2022-11-16T19:10:09.250Z,16.50
2022-11-16T19:12:37.139Z,12.77
2022-11-16T19:15:05.782Z,10.47
2022-11-16T19:17:48.022Z,13.10
2022-11-16T19:20:22.811Z,10.57
2022-11-16T19:22:50.658Z,11.47
2022-11-16T19:25:18.487Z,16.23
2022-11-16T19:27:46.364Z,12.33
2022-11-16T19:30:14.332Z,10.13
2022-11-16T19:32:43.533Z,12.80
2022-11-16T19:35:12.037Z,13.10
2022-11-16T19:37:40.004Z,12.40
2022-11-16T19:40:09.273Z,12.80
2022-11-16T19:42:37.635Z,13.03
2022-11-16T19:45:06.603Z,10.67
2022-11-16T19:47:34.689Z,14.70
2022-11-16T19:50:04.086Z,9.73
2022-11-16T19:52:32.177Z,14.60
2022-11-16T19:55:00.303Z,12.90
2022-11-16T19:57:28.931Z,11.03
2022-11-16T19:59:56.965Z,8.40
2022-11-16T20:02:25.038Z,11.57
2022-11-16T20:04:53.376Z,13.10
2022-11-16T20:07:23.553Z,8.90
2022-11-16T20:09:53.570Z,9.10
2022-11-16T20:12:21.666Z,12.77
2022-11-16T20:14:49.725Z,9.53
2022-11-16T20:17:17.834Z,9.43
2022-11-16T20:19:45.832Z,14.13
2022-11-16T20:22:13.848Z,10.43
2022-11-16T20:24:43.314Z,11.00
2022-11-16T20:27:11.313Z,8.20
2022-11-16T20:29:39.190Z,9.83
2022-11-16T20:32:07.210Z,10.20
2022-11-16T20:34:35.346Z,8.03
2022-11-16T20:37:03.498Z,13.43
2022-11-16T20:39:31.619Z,12.57
2022-11-16T20:42:00.970Z,11.33
2022-11-16T20:44:30.039Z,11.00
2022-11-16T20:46:58.019Z,9.43
2022-11-16T20:49:26.058Z,20.53
2022-11-16T20:51:53.987Z,8.50
2022-11-16T20:54:22.193Z,8.27
2022-11-16T20:56:50.554Z,12.83
2022-11-16T20:59:20.172Z,12.70
2022-11-16T21:01:48.857Z,13.00
2022-11-16T21:04:17.206Z,10.30
2022-11-16T21:06:45.320Z,10.90
2022-11-16T21:09:15.470Z,9.70
2022-11-16T21:12:06.051Z,8.50
2022-11-16T21:14:35.369Z,7.17
2022-11-16T21:17:03.269Z,30.77
2022-11-16T21:19:31.147Z,6.97
2022-11-16T21:21:58.956Z,8.97
2022-11-16T21:24:28.344Z,8.97
2022-11-16T21:26:56.151Z,9.27
2022-11-16T21:29:39.998Z,9.70
2022-11-16T21:32:09.284Z,9.37
2022-11-16T21:34:40.092Z,9.17
2022-11-16T21:37:08.244Z,14.50
2022-11-16T21:39:36.093Z,9.70
2022-11-16T21:42:03.976Z,10.30
2022-11-16T21:44:41.836Z,6.57
2022-11-16T21:47:11.524Z,8.97
2022-11-16T21:50:02.405Z,5.97
2022-11-16T21:52:28.776Z,7.23
2022-11-16T21:55:00.326Z,7.00
2022-11-16T21:57:28.897Z,7.77
2022-11-16T21:59:56.798Z,10.50
2022-11-16T22:02:26.010Z,10.00
2022-11-16T22:05:11.303Z,6.70
2022-11-16T22:07:41.379Z,8.03
2022-11-16T22:10:11.122Z,6.63
2022-11-16T22:12:39.439Z,7.43
2022-11-16T22:15:08.392Z,7.57
2022-11-16T22:17:37.596Z,8.37
2022-11-16T22:20:06.386Z,8.67
2022-11-16T22:22:34.236Z,9.30
2022-11-16T22:25:02.059Z,9.50
2022-11-16T22:27:29.959Z,10.40
2022-11-16T22:29:57.859Z,9.23
2022-11-16T22:32:25.803Z,8.50
2022-11-16T22:34:55.072Z,8.70
2022-11-16T22:37:22.945Z,9.57
2022-11-16T22:39:50.812Z,7.10
2022-11-16T22:42:18.685Z,8.50
2022-11-16T22:44:46.484Z,8.50
2022-11-16T22:47:14.490Z,10.43
2022-11-16T22:49:42.662Z,7.50
2022-11-16T22:52:12.373Z,10.10
2022-11-16T22:54:40.528Z,8.00
2022-11-16T22:57:08.378Z,12.07
2022-11-16T22:59:36.327Z,8.47
2022-11-16T23:02:05.825Z,8.00
2022-11-16T23:04:33.755Z,12.07
2022-11-16T23:07:01.721Z,10.87
2022-11-16T23:09:31.984Z,7.80
2022-11-16T23:12:17.386Z,8.73
2022-11-16T23:15:02.439Z,9.77
2022-11-16T23:17:30.383Z,10.03
2022-11-16T23:20:17.770Z,13.90
2022-11-16T23:23:03.735Z,10.50
2022-11-16T23:25:50.981Z,20.50
2022-11-16T23:28:20.155Z,10.17
2022-11-16T23:30:48.104Z,14.33
2022-11-16T23:33:16.042Z,15.20
2022-11-16T23:35:44.392Z,10.80
2022-11-16T23:38:14.035Z,9.43
2022-11-16T23:40:43.326Z,13.87
2022-11-16T23:43:29.069Z,11.73
2022-11-16T23:45:56.936Z,12.53
2022-11-16T23:48:24.803Z,12.20
2022-11-16T23:50:52.620Z,12.77
2022-11-16T23:53:20.445Z,10.70
2022-11-16T23:55:52.879Z,11.80
2022-11-16T23:58:20.716Z,11.07
